createdAt,value
2019-06-26T00:00:26.759Z,15.72
2019-06-26T00:02:56.248Z,17.98
2019-06-26T00:05:25.399Z,16.48
2019-06-26T00:07:54.543Z,16.97
2019-06-26T00:10:23.586Z,15.93
2019-06-26T00:12:52.906Z,17.82
2019-06-26T00:15:22.003Z,21.80
2019-06-26T00:17:51.654Z,17.00
2019-06-26T00:20:23.856Z,18.75
2019-06-26T00:22:52.974Z,19.25
2019-06-26T00:25:28.166Z,19.73
2019-06-26T00:27:57.439Z,20.15
2019-06-26T00:30:26.535Z,20.05
2019-06-26T00:32:58.927Z,18.45
2019-06-26T00:35:27.978Z,20.32
2019-06-26T00:37:57.070Z,19.90
2019-06-26T00:40:26.506Z,16.00
2019-06-26T00:42:56.066Z,20.00
2019-06-26T00:45:25.485Z,21.20
2019-06-26T00:47:54.674Z,22.27
2019-06-26T00:50:23.753Z,21.65
2019-06-26T00:52:52.570Z,19.42
2019-06-26T00:55:21.639Z,22.13
2019-06-26T00:57:50.762Z,20.00
2019-06-26T01:00:25.199Z,21.33
2019-06-26T01:02:54.493Z,16.70
2019-06-26T01:05:23.505Z,18.75
2019-06-26T01:07:55.530Z,16.02
2019-06-26T01:10:24.433Z,19.98
2019-06-26T01:12:53.525Z,14.25
2019-06-26T01:15:22.464Z,16.77
2019-06-26T01:17:51.713Z,22.35
2019-06-26T01:20:20.653Z,19.52
2019-06-26T01:22:49.619Z,17.30
2019-06-26T01:25:37.893Z,18.73
2019-06-26T01:28:10.191Z,20.85
2019-06-26T01:30:39.203Z,19.82
2019-06-26T01:33:08.520Z,18.82
2019-06-26T01:35:37.461Z,17.23
2019-06-26T01:38:06.628Z,14.07
2019-06-26T01:40:35.613Z,20.15
2019-06-26T01:43:04.858Z,19.90
2019-06-26T01:45:53.042Z,17.48
2019-06-26T01:48:25.366Z,15.93
2019-06-26T01:50:54.566Z,14.55
2019-06-26T01:53:23.644Z,23.70
2019-06-26T01:55:52.603Z,17.32
2019-06-26T01:58:24.944Z,18.35
2019-06-26T02:00:53.765Z,18.95
2019-06-26T02:03:22.923Z,13.85
2019-06-26T02:05:51.743Z,17.82
2019-06-26T02:08:20.747Z,23.40
2019-06-26T02:10:49.730Z,20.02
2019-06-26T02:13:19.683Z,19.55
2019-06-26T02:15:48.648Z,13.30
2019-06-26T02:18:36.275Z,16.40
2019-06-26T02:21:05.104Z,17.50
2019-06-26T02:23:33.907Z,21.73
2019-06-26T02:26:02.905Z,18.40
2019-06-26T02:28:32.036Z,16.15
2019-06-26T02:31:00.909Z,19.07
2019-06-26T02:33:29.759Z,15.03
2019-06-26T02:35:58.601Z,17.00
2019-06-26T02:38:27.665Z,21.17
2019-06-26T02:40:56.704Z,19.27
2019-06-26T02:43:25.591Z,17.45
2019-06-26T02:45:54.583Z,16.35
2019-06-26T02:48:23.606Z,19.35
2019-06-26T02:50:52.379Z,17.20
2019-06-26T02:53:21.205Z,17.75
2019-06-26T02:55:49.988Z,19.37
2019-06-26T02:58:18.933Z,20.12
2019-06-26T03:00:47.909Z,22.80
2019-06-26T03:03:16.771Z,17.90
2019-06-26T03:05:45.557Z,19.75
2019-06-26T03:08:14.466Z,15.58
2019-06-26T03:10:43.302Z,22.25
2019-06-26T03:13:12.205Z,16.65
2019-06-26T03:15:41.092Z,17.92
2019-06-26T03:18:10.138Z,21.68
2019-06-26T03:20:43.021Z,16.90
2019-06-26T03:23:11.862Z,20.45
2019-06-26T03:25:40.801Z,22.25
2019-06-26T03:28:09.650Z,21.48
2019-06-26T03:30:38.471Z,20.02
2019-06-26T03:33:07.342Z,21.02
2019-06-26T03:35:36.266Z,20.90
2019-06-26T03:38:05.194Z,21.55
2019-06-26T03:40:33.976Z,19.15
2019-06-26T03:43:02.885Z,21.65
2019-06-26T03:45:31.812Z,22.35
2019-06-26T03:48:00.610Z,21.73
2019-06-26T03:50:29.470Z,19.67
2019-06-26T03:52:58.514Z,15.43
2019-06-26T03:55:27.314Z,18.50
2019-06-26T03:57:56.079Z,17.32
2019-06-26T04:00:37.194Z,20.10
2019-06-26T04:03:06.073Z,19.85
2019-06-26T04:05:34.943Z,16.37
2019-06-26T04:08:03.872Z,15.30
2019-06-26T04:10:32.641Z,20.23
2019-06-26T04:13:01.637Z,16.77
2019-06-26T04:15:41.412Z,17.67
2019-06-26T04:18:01.153Z,16.10
2019-06-26T04:20:31.666Z,17.32
2019-06-26T04:23:00.523Z,16.60
2019-06-26T04:25:29.428Z,16.90
2019-06-26T04:27:58.310Z,17.00
2019-06-26T04:30:27.190Z,13.90
2019-06-26T04:32:55.949Z,13.38
2019-06-26T04:35:24.737Z,18.48
2019-06-26T04:37:53.913Z,18.73
2019-06-26T04:40:22.850Z,20.27
2019-06-26T04:42:51.590Z,18.00
2019-06-26T04:45:20.429Z,19.32
2019-06-26T04:47:49.201Z,19.02
2019-06-26T04:50:18.868Z,15.90
2019-06-26T04:52:47.682Z,15.18
2019-06-26T04:55:16.650Z,16.90
2019-06-26T04:57:45.681Z,19.15
2019-06-26T05:00:14.640Z,15.25
2019-06-26T05:02:43.445Z,17.52
2019-06-26T05:05:13.901Z,17.48
2019-06-26T05:07:42.753Z,17.55
2019-06-26T05:10:11.605Z,16.87
2019-06-26T05:12:40.444Z,18.82
2019-06-26T05:15:09.305Z,22.10
2019-06-26T05:17:39.522Z,18.10
2019-06-26T05:20:09.370Z,18.92
2019-06-26T05:22:38.185Z,15.80
2019-06-26T05:25:07.155Z,18.40
2019-06-26T05:27:35.968Z,18.95
2019-06-26T05:30:06.024Z,16.37
2019-06-26T05:32:34.817Z,16.90
2019-06-26T05:35:03.704Z,19.02
2019-06-26T05:37:32.525Z,24.32
2019-06-26T05:40:02.438Z,18.17
2019-06-26T05:42:31.389Z,19.90
2019-06-26T05:45:00.877Z,20.08
2019-06-26T05:47:29.662Z,18.40
2019-06-26T05:49:58.554Z,20.97
2019-06-26T05:52:27.406Z,25.20
2019-06-26T05:54:56.177Z,20.20
2019-06-26T05:57:25.141Z,25.68
2019-06-26T05:59:53.964Z,18.60
2019-06-26T06:02:42.086Z,17.65
2019-06-26T06:05:13.982Z,20.17
2019-06-26T06:07:42.920Z,17.92
2019-06-26T06:10:11.865Z,20.05
2019-06-26T06:12:40.706Z,16.73
2019-06-26T06:15:09.716Z,23.62
2019-06-26T06:17:38.624Z,21.52
2019-06-26T06:20:07.604Z,18.10
2019-06-26T06:22:36.582Z,20.82
2019-06-26T06:25:07.226Z,23.55
2019-06-26T06:27:38.609Z,19.13
2019-06-26T06:30:07.553Z,13.60
2019-06-26T06:32:36.440Z,15.13
2019-06-26T06:35:05.415Z,14.50
2019-06-26T06:37:34.331Z,16.37
2019-06-26T06:40:04.371Z,14.95
2019-06-26T06:42:34.311Z,12.13
2019-06-26T06:45:03.253Z,13.25
2019-06-26T06:47:32.252Z,9.43
2019-06-26T06:50:01.671Z,13.72
2019-06-26T06:52:30.945Z,10.08
2019-06-26T06:54:59.814Z,9.13
2019-06-26T06:57:28.773Z,10.88
2019-06-26T06:59:57.607Z,9.75
2019-06-26T07:02:26.590Z,8.20
2019-06-26T07:04:55.593Z,10.80
2019-06-26T07:07:24.582Z,8.08
2019-06-26T07:09:53.532Z,7.37
2019-06-26T07:12:22.328Z,8.08
2019-06-26T07:14:51.255Z,7.00
2019-06-26T07:17:21.395Z,7.65
2019-06-26T07:19:50.526Z,8.58
2019-06-26T07:22:19.382Z,7.33
2019-06-26T07:24:48.981Z,6.35
2019-06-26T07:27:17.809Z,6.17
2019-06-26T07:29:46.648Z,6.12
2019-06-26T07:32:15.723Z,6.83
2019-06-26T07:34:44.575Z,7.40
2019-06-26T07:37:13.543Z,7.67
2019-06-26T07:39:42.519Z,6.03
2019-06-26T07:42:11.496Z,5.78
2019-06-26T07:44:40.302Z,6.15
2019-06-26T07:47:22.395Z,6.25
2019-06-26T07:49:39.723Z,5.80
2019-06-26T07:52:08.674Z,6.22
2019-06-26T07:54:37.589Z,6.87
2019-06-26T07:57:06.434Z,6.03
2019-06-26T07:59:35.326Z,6.12
2019-06-26T08:02:04.171Z,8.13
2019-06-26T08:04:32.971Z,7.53
2019-06-26T08:07:01.786Z,6.55
2019-06-26T08:09:30.586Z,6.80
2019-06-26T08:11:59.455Z,8.43
2019-06-26T08:14:28.382Z,7.40
2019-06-26T08:16:57.158Z,7.62
2019-06-26T08:19:26.006Z,6.65
2019-06-26T08:21:54.822Z,8.45
2019-06-26T08:24:23.709Z,6.20
2019-06-26T08:26:52.529Z,8.18
2019-06-26T08:29:21.621Z,8.33
2019-06-26T08:31:50.694Z,9.00
2019-06-26T08:34:19.617Z,10.48
2019-06-26T08:36:48.413Z,12.00
2019-06-26T08:39:17.331Z,6.35
2019-06-26T08:41:47.924Z,6.12
2019-06-26T08:44:16.834Z,6.80
2019-06-26T08:46:45.720Z,7.15
2019-06-26T08:49:24.882Z,11.22
2019-06-26T08:51:45.071Z,7.17
2019-06-26T08:54:13.997Z,9.08
2019-06-26T08:56:42.930Z,7.17
2019-06-26T08:59:11.735Z,9.48
2019-06-26T09:01:40.589Z,7.72
2019-06-26T09:04:09.374Z,9.98
2019-06-26T09:06:38.195Z,7.87
2019-06-26T09:09:07.487Z,9.93
2019-06-26T09:11:36.481Z,8.55
2019-06-26T09:14:05.262Z,6.87
2019-06-26T09:16:34.103Z,9.40
2019-06-26T09:19:03.042Z,8.38
2019-06-26T09:21:31.853Z,8.83
2019-06-26T09:24:00.725Z,11.12
2019-06-26T09:26:29.534Z,8.63
2019-06-26T09:28:58.469Z,8.40
2019-06-26T09:31:27.392Z,12.43
2019-06-26T09:33:56.304Z,13.68
2019-06-26T09:36:25.071Z,14.80
2019-06-26T09:38:57.750Z,14.13
2019-06-26T09:41:24.422Z,14.33
2019-06-26T09:43:53.282Z,12.00
2019-06-26T09:46:22.189Z,9.90
2019-06-26T09:48:53.169Z,12.40
2019-06-26T09:51:21.526Z,13.13
2019-06-26T09:53:50.414Z,12.37
2019-06-26T09:56:19.258Z,12.73
2019-06-26T09:58:48.233Z,12.47
2019-06-26T10:01:17.131Z,12.90
2019-06-26T10:03:45.988Z,13.00
2019-06-26T10:06:14.782Z,12.75
2019-06-26T10:08:45.856Z,15.95
2019-06-26T10:11:14.632Z,14.63
2019-06-26T10:13:43.454Z,15.58
2019-06-26T10:16:12.306Z,15.08
2019-06-26T10:18:41.097Z,15.03
2019-06-26T10:21:09.929Z,16.50
2019-06-26T10:23:39.761Z,22.40
2019-06-26T10:26:27.851Z,12.40
2019-06-26T10:28:56.712Z,13.15
2019-06-26T10:31:25.650Z,15.85
2019-06-26T10:34:13.790Z,13.50
2019-06-26T10:36:42.665Z,14.98
2019-06-26T10:39:11.469Z,14.43
2019-06-26T10:41:41.910Z,13.03
2019-06-26T10:44:12.119Z,14.85
2019-06-26T10:46:40.988Z,12.23
2019-06-26T10:49:22.698Z,15.38
2019-06-26T10:51:40.492Z,14.60
2019-06-26T10:54:09.324Z,14.00
2019-06-26T10:56:38.133Z,14.45
2019-06-26T10:59:07.083Z,15.23
2019-06-26T11:01:36.020Z,14.05
2019-06-26T11:04:04.962Z,12.23
2019-06-26T11:06:37.102Z,13.65
2019-06-26T11:09:05.698Z,11.93
2019-06-26T11:11:34.700Z,13.62
2019-06-26T11:14:03.527Z,13.80
2019-06-26T11:16:32.365Z,14.28
2019-06-26T11:19:01.402Z,15.85
2019-06-26T11:21:30.375Z,15.03
2019-06-26T11:23:59.323Z,11.53
2019-06-26T11:26:28.115Z,14.03
2019-06-26T11:28:57.106Z,11.55
2019-06-26T11:31:26.011Z,14.20
2019-06-26T11:33:54.863Z,12.63
2019-06-26T11:36:23.659Z,15.03
2019-06-26T11:38:52.567Z,13.13
2019-06-26T11:41:21.523Z,10.78
2019-06-26T11:43:50.393Z,14.58
2019-06-26T11:46:20.430Z,11.12
2019-06-26T11:48:49.393Z,12.90
2019-06-26T11:51:18.206Z,13.85
2019-06-26T11:53:47.098Z,13.30
2019-06-26T11:56:16.055Z,12.47
2019-06-26T11:58:44.870Z,13.15
2019-06-26T12:01:13.758Z,17.30
2019-06-26T12:03:42.643Z,12.13
2019-06-26T12:06:18.673Z,14.93
2019-06-26T12:08:42.090Z,17.52
2019-06-26T12:11:10.953Z,16.85
2019-06-26T12:13:40.129Z,13.38
2019-06-26T12:16:09.282Z,14.87
2019-06-26T12:18:38.157Z,14.83
2019-06-26T12:21:07.082Z,14.68
2019-06-26T12:23:36.040Z,11.05
2019-06-26T12:26:05.066Z,16.05
2019-06-26T12:28:34.009Z,16.40
2019-06-26T12:31:02.977Z,14.60
2019-06-26T12:33:32.039Z,17.73
2019-06-26T12:36:00.958Z,12.70
2019-06-26T12:38:29.880Z,14.10
2019-06-26T12:41:00.863Z,14.78
2019-06-26T12:43:29.711Z,12.63
2019-06-26T12:45:58.635Z,13.00
2019-06-26T12:48:27.611Z,14.30
2019-06-26T12:50:56.621Z,16.77
2019-06-26T12:53:27.613Z,14.60
2019-06-26T12:55:56.565Z,11.97
2019-06-26T12:58:25.366Z,16.05
2019-06-26T13:00:54.168Z,12.33
2019-06-26T13:03:22.973Z,11.75
2019-06-26T13:05:51.865Z,11.95
2019-06-26T13:08:20.679Z,9.85
2019-06-26T13:10:50.601Z,17.50
2019-06-26T13:13:19.661Z,13.10
2019-06-26T13:15:55.693Z,10.95
2019-06-26T13:18:24.683Z,14.28
2019-06-26T13:20:53.938Z,13.53
2019-06-26T13:23:22.834Z,10.15
2019-06-26T13:25:51.823Z,12.05
2019-06-26T13:28:20.873Z,17.37
2019-06-26T13:30:53.069Z,12.30
2019-06-26T13:33:20.234Z,12.63
2019-06-26T13:35:49.037Z,15.15
2019-06-26T13:38:17.793Z,12.35
2019-06-26T13:40:46.629Z,11.15
2019-06-26T13:43:15.512Z,11.20
2019-06-26T13:45:44.275Z,12.00
2019-06-26T13:48:13.027Z,10.03
2019-06-26T13:50:41.821Z,11.63
2019-06-26T13:53:10.581Z,11.78
2019-06-26T13:55:41.137Z,12.47
2019-06-26T13:58:09.893Z,14.45
2019-06-26T14:00:38.756Z,12.53
2019-06-26T14:03:07.569Z,11.30
2019-06-26T14:05:36.325Z,13.53
2019-06-26T14:08:05.995Z,13.18
2019-06-26T14:10:34.741Z,14.28
2019-06-26T14:13:03.546Z,11.28
2019-06-26T14:15:32.401Z,12.98
2019-06-26T14:18:01.152Z,13.32
2019-06-26T14:20:29.910Z,12.13
2019-06-26T14:22:58.673Z,15.48
2019-06-26T14:25:27.440Z,11.95
2019-06-26T14:27:56.230Z,16.95
2019-06-26T14:30:27.824Z,12.35
2019-06-26T14:32:55.553Z,13.18
2019-06-26T14:35:24.401Z,13.80
2019-06-26T14:37:53.213Z,14.05
2019-06-26T14:40:21.982Z,12.30
2019-06-26T14:42:50.812Z,13.28
2019-06-26T14:45:19.601Z,10.53
2019-06-26T14:47:48.433Z,14.60
2019-06-26T14:50:17.244Z,15.50
2019-06-26T14:52:46.225Z,14.58
2019-06-26T14:55:15.046Z,13.80
2019-06-26T14:57:43.798Z,14.23
2019-06-26T15:00:14.931Z,15.40
2019-06-26T15:02:43.825Z,12.88
2019-06-26T15:05:14.290Z,12.53
2019-06-26T15:07:43.087Z,12.03
2019-06-26T15:10:13.497Z,15.75
2019-06-26T15:12:42.319Z,13.53
2019-06-26T15:15:11.125Z,12.03
2019-06-26T15:17:39.887Z,9.25
2019-06-26T15:20:08.666Z,10.95
2019-06-26T15:22:37.510Z,14.87
2019-06-26T15:25:06.647Z,20.92
2019-06-26T15:27:36.302Z,13.22
2019-06-26T15:30:05.927Z,9.63
2019-06-26T15:32:34.704Z,17.73
2019-06-26T15:35:04.246Z,14.45
2019-06-26T15:37:33.181Z,14.58
2019-06-26T15:40:02.011Z,12.23
2019-06-26T15:42:30.770Z,16.75
2019-06-26T15:44:59.604Z,12.75
2019-06-26T15:47:28.429Z,13.90
2019-06-26T15:49:57.265Z,22.27
2019-06-26T15:52:26.126Z,15.45
2019-06-26T15:54:54.930Z,14.30
2019-06-26T15:57:23.770Z,14.58
2019-06-26T15:59:52.544Z,15.30
2019-06-26T16:02:21.329Z,25.92
2019-06-26T16:04:50.207Z,22.98
2019-06-26T16:07:19.050Z,17.23
2019-06-26T16:09:48.027Z,13.83
2019-06-26T16:12:16.874Z,14.98
2019-06-26T16:14:45.674Z,16.37
2019-06-26T16:17:28.786Z,9.45
2019-06-26T16:19:57.621Z,12.15
2019-06-26T16:22:32.220Z,10.95
2019-06-26T16:25:16.190Z,13.50
2019-06-26T16:27:45.127Z,10.75
2019-06-26T16:30:13.892Z,10.63
2019-06-26T16:32:42.647Z,14.10
2019-06-26T16:35:12.446Z,10.95
2019-06-26T16:37:41.371Z,20.90
2019-06-26T16:40:10.138Z,12.95
2019-06-26T16:42:38.925Z,17.20
2019-06-26T16:45:07.702Z,14.55
2019-06-26T16:47:36.490Z,13.95
2019-06-26T16:50:05.505Z,11.38
2019-06-26T16:52:48.044Z,12.47
2019-06-26T16:55:05.378Z,13.53
2019-06-26T16:57:34.146Z,11.85
2019-06-26T17:00:09.682Z,16.15
2019-06-26T17:02:33.433Z,12.15
2019-06-26T17:05:02.215Z,11.60
2019-06-26T17:07:31.204Z,9.63
2019-06-26T17:10:00.103Z,14.35
2019-06-26T17:12:28.890Z,12.15
2019-06-26T17:14:57.710Z,11.48
2019-06-26T17:17:26.482Z,13.32
2019-06-26T17:19:55.266Z,14.35
2019-06-26T17:22:24.926Z,10.13
2019-06-26T17:24:53.690Z,12.00
2019-06-26T17:27:22.457Z,13.05
2019-06-26T17:29:51.338Z,14.30
2019-06-26T17:32:20.211Z,12.93
2019-06-26T17:34:48.976Z,11.55
2019-06-26T17:37:17.758Z,13.08
2019-06-26T17:39:46.635Z,8.33
2019-06-26T17:42:15.430Z,10.35
2019-06-26T17:44:44.279Z,13.75
2019-06-26T17:47:13.054Z,10.90
2019-06-26T17:49:41.906Z,10.45
2019-06-26T17:52:10.734Z,12.53
2019-06-26T17:54:39.594Z,10.85
2019-06-26T17:57:08.393Z,8.93
2019-06-26T17:59:37.158Z,8.73
2019-06-26T18:02:05.935Z,13.95
2019-06-26T18:04:34.902Z,13.50
2019-06-26T18:07:03.684Z,13.15
2019-06-26T18:09:32.535Z,11.60
2019-06-26T18:12:01.392Z,11.90
2019-06-26T18:14:30.154Z,11.48
2019-06-26T18:16:58.927Z,15.93
2019-06-26T18:19:28.206Z,14.38
2019-06-26T18:21:56.969Z,9.48
2019-06-26T18:24:25.754Z,9.65
2019-06-26T18:26:54.598Z,14.25
2019-06-26T18:29:23.382Z,13.00
2019-06-26T18:31:52.192Z,10.90
2019-06-26T18:34:21.027Z,14.87
2019-06-26T18:36:49.794Z,15.48
2019-06-26T18:39:18.654Z,12.25
2019-06-26T18:41:47.458Z,12.43
2019-06-26T18:44:16.213Z,10.65
2019-06-26T18:46:45.006Z,13.25
2019-06-26T18:49:13.774Z,12.30
2019-06-26T18:51:42.571Z,15.30
2019-06-26T18:54:11.347Z,12.53
2019-06-26T18:56:40.121Z,16.82
2019-06-26T18:59:09.083Z,19.67
2019-06-26T19:01:37.838Z,18.07
2019-06-26T19:04:06.622Z,15.05
2019-06-26T19:06:35.378Z,10.88
2019-06-26T19:09:05.230Z,11.88
2019-06-26T19:11:34.079Z,19.32
2019-06-26T19:14:02.855Z,10.82
2019-06-26T19:16:31.730Z,7.20
2019-06-26T19:19:00.578Z,9.28
2019-06-26T19:21:29.403Z,8.18
2019-06-26T19:24:09.625Z,10.10
2019-06-26T19:26:28.747Z,10.98
2019-06-26T19:28:57.540Z,9.40
2019-06-26T19:31:26.320Z,10.05
2019-06-26T19:33:55.158Z,8.35
2019-06-26T19:36:28.293Z,11.65
2019-06-26T19:38:54.461Z,10.72
2019-06-26T19:41:23.302Z,10.20
2019-06-26T19:43:52.115Z,9.93
2019-06-26T19:46:20.958Z,12.47
2019-06-26T19:48:49.744Z,10.38
2019-06-26T19:51:18.556Z,11.22
2019-06-26T19:53:47.326Z,8.83
2019-06-26T19:56:19.821Z,9.05
2019-06-26T19:58:46.832Z,8.88
2019-06-26T20:01:17.852Z,8.75
2019-06-26T20:03:48.367Z,6.37
2019-06-26T20:06:36.483Z,7.55
2019-06-26T20:09:06.469Z,7.90
2019-06-26T20:11:36.443Z,6.70
2019-06-26T20:14:05.215Z,6.10
2019-06-26T20:16:36.633Z,8.28
2019-06-26T20:21:33.530Z,5.50
2019-06-26T20:24:02.397Z,6.87
2019-06-26T20:26:31.283Z,6.80
2019-06-26T20:29:00.067Z,4.70
2019-06-26T20:31:28.925Z,6.30
2019-06-26T20:33:57.745Z,7.00
2019-06-26T20:36:26.491Z,11.20
2019-06-26T20:38:55.217Z,6.33
2019-06-26T20:41:23.994Z,6.47
2019-06-26T20:43:52.953Z,6.90
2019-06-26T20:46:21.749Z,6.20
2019-06-26T20:48:50.527Z,9.80
2019-06-26T20:51:20.894Z,5.87
2019-06-26T20:53:49.966Z,4.62
2019-06-26T20:56:18.778Z,4.83
2019-06-26T20:58:47.628Z,4.70
2019-06-26T21:01:16.414Z,7.85
2019-06-26T21:03:45.179Z,6.75
2019-06-26T21:06:13.946Z,5.97
2019-06-26T21:08:42.738Z,5.83
2019-06-26T21:11:11.526Z,5.22
2019-06-26T21:13:40.323Z,8.53
2019-06-26T21:16:09.124Z,6.37
2019-06-26T21:18:57.179Z,5.20
2019-06-26T21:21:25.982Z,8.13
2019-06-26T21:23:54.838Z,7.12
2019-06-26T21:26:23.802Z,6.70
2019-06-26T21:28:52.761Z,5.45
2019-06-26T21:31:21.517Z,7.53
2019-06-26T21:33:50.394Z,6.58
2019-06-26T21:36:19.215Z,6.50
2019-06-26T21:38:47.978Z,6.85
2019-06-26T21:41:16.774Z,5.78
2019-06-26T21:43:45.571Z,6.67
2019-06-26T21:46:14.790Z,8.58
2019-06-26T21:48:43.598Z,5.58
2019-06-26T21:51:12.346Z,9.48
2019-06-26T21:53:41.147Z,9.98
2019-06-26T21:56:09.897Z,7.50
2019-06-26T21:58:38.649Z,5.28
2019-06-26T22:01:07.529Z,7.35
2019-06-26T22:03:36.299Z,7.10
2019-06-26T22:06:05.064Z,6.20
2019-06-26T22:08:33.949Z,5.90
2019-06-26T22:11:02.850Z,8.58
2019-06-26T22:13:31.713Z,6.42
2019-06-26T22:16:00.509Z,7.12
2019-06-26T22:18:29.421Z,6.12
2019-06-26T22:20:58.937Z,5.67
2019-06-26T22:23:27.727Z,5.08
2019-06-26T22:25:56.578Z,6.37
2019-06-26T22:28:25.909Z,6.20
2019-06-26T22:30:54.767Z,7.58
2019-06-26T22:33:23.557Z,5.97
2019-06-26T22:35:52.383Z,5.42
2019-06-26T22:38:21.137Z,6.67
2019-06-26T22:40:49.944Z,5.40
2019-06-26T22:43:18.820Z,6.42
2019-06-26T22:45:47.703Z,5.97
2019-06-26T22:48:18.645Z,4.45
2019-06-26T22:50:47.550Z,6.78
2019-06-26T22:53:16.442Z,7.47
2019-06-26T22:55:45.218Z,7.22
2019-06-26T22:58:15.002Z,7.28
2019-06-26T23:01:03.065Z,5.72
2019-06-26T23:03:31.910Z,5.53
2019-06-26T23:06:00.695Z,4.75
2019-06-26T23:08:29.450Z,7.33
2019-06-26T23:10:58.318Z,5.72
2019-06-26T23:13:27.087Z,7.58
2019-06-26T23:15:55.923Z,4.97
2019-06-26T23:18:24.725Z,4.72
2019-06-26T23:20:55.298Z,6.35
2019-06-26T23:23:24.054Z,8.75
2019-06-26T23:25:52.858Z,6.28
2019-06-26T23:28:21.623Z,5.05
2019-06-26T23:30:50.389Z,7.47
2019-06-26T23:33:19.272Z,6.65
2019-06-26T23:35:48.273Z,7.22
2019-06-26T23:38:17.133Z,5.50
2019-06-26T23:40:45.930Z,6.15
2019-06-26T23:43:14.682Z,5.35
2019-06-26T23:45:43.630Z,6.05
2019-06-26T23:48:12.437Z,6.62
2019-06-26T23:50:41.213Z,11.15
2019-06-26T23:53:09.984Z,6.85
2019-06-26T23:55:38.765Z,5.62
2019-06-26T23:58:07.521Z,5.85
